PWSweather.com
Personal Weather Stations
Station Observations
CANDIOTINO
Barrio Candioti Norte, Santa FeAR 3000

Barrio Candioti NorteSanta FeAR 3000

Lat: -31.632778, Lon: -60.695556

Elevation: 69

Station Type: WH-1081

http://www.eltiempoensantafe.com.ar

High Low Average
Temperature 91.4°F33.0°C 64.4°F18.0°C 77.2°F25.1°C
Dew Point 63.0°F17.2°C 38.6°F3.7°C 52.9°F11.6°C
Winds 6.0 mph 9.7 kmh Calm Calm 2.0 mph E3.2 kmh E
Wind Gusts 12.1 mph19.5 kmh -- 6.0 mph9.7 kmh
Humidity 88% 18% 48%
Pressure 30.09 in1019.0 mb 29.98 in1015.2 mb -
Precipitation 0.00 in0.0 mm - -
Hour Temp Dew Point Humidity Winds Wind Gusts Pressure Precip Precip Rate Daily Precip Total
12:10 AM 70.2°F21.2°C 57.0°F13.9°C 63% 3.1 mph SE5.0 kmh SE 5.4 mph8.7 kmh 30.02 in1016.6 mb 0.00 in0.0 mm 0.00 in0.0 mm 0.00 in0.0 mm
12:25 AM 70.2°F21.2°C 57.0°F13.9°C 63% 1.6 mph SE2.6 kmh SE 6.0 mph9.7 kmh 30.02 in1016.6 mb 0.00 in0.0 mm 0.00 in0.0 mm 0.00 in0.0 mm
12:40 AM 69.8°F21.0°C 57.1°F13.9°C 64% 2.2 mph SSE3.5 kmh SSE 4.5 mph7.2 kmh 30.02 in1016.6 mb 0.00 in0.0 mm 0.00 in0.0 mm 0.00 in0.0 mm
12:55 AM 69.6°F20.9°C 57.8°F14.3°C 66% 0.7 mph SE1.1 kmh SE 3.1 mph5.0 kmh 30.02 in1016.6 mb 0.00 in0.0 mm 0.00 in0.0 mm 0.00 in0.0 mm
01:10 AM 69.4°F20.8°C 57.6°F14.2°C 66% 1.6 mph SE2.6 kmh SE 3.1 mph5.0 kmh 30.02 in1016.6 mb 0.00 in0.0 mm 0.00 in0.0 mm 0.00 in0.0 mm
01:25 AM 69.8°F21.0°C 57.1°F13.9°C 64% 1.6 mph SE2.6 kmh SE 3.8 mph6.1 kmh 30.02 in1016.6 mb 0.00 in0.0 mm 0.00 in0.0 mm 0.00 in0.0 mm
01:40 AM 70.0°F21.1°C 56.8°F13.8°C 63% 2.2 mph E3.5 kmh E 3.8 mph6.1 kmh 30.03 in1016.9 mb 0.00 in0.0 mm 0.00 in0.0 mm 0.00 in0.0 mm
01:55 AM 69.6°F20.9°C 54.7°F12.6°C 59% 0.7 mph E1.1 kmh E 5.4 mph8.7 kmh 30.02 in1016.6 mb 0.00 in0.0 mm 0.00 in0.0 mm 0.00 in0.0 mm
02:10 AM 69.1°F20.6°C 51.3°F10.7°C 53% 0.7 mph ESE1.1 kmh ESE 4.5 mph7.2 kmh 30.03 in1016.9 mb 0.00 in0.0 mm 0.00 in0.0 mm 0.00 in0.0 mm
02:25 AM 68.5°F20.3°C 51.3°F10.7°C 54% 0.7 mph E1.1 kmh E 4.5 mph7.2 kmh 30.03 in1016.9 mb 0.00 in0.0 mm 0.00 in0.0 mm 0.00 in0.0 mm
02:40 AM 68.0°F20.0°C 51.7°F10.9°C 56% 1.6 mph ESE2.6 kmh ESE 3.1 mph5.0 kmh 30.02 in1016.6 mb 0.00 in0.0 mm 0.00 in0.0 mm 0.00 in0.0 mm
02:55 AM 67.5°F19.7°C 53.1°F11.7°C 60% 1.6 mph ESE2.6 kmh ESE 3.1 mph5.0 kmh 30.02 in1016.6 mb 0.00 in0.0 mm 0.00 in0.0 mm 0.00 in0.0 mm
03:10 AM 67.3°F19.6°C 54.3°F12.4°C 63% 1.6 mph SE2.6 kmh SE 3.1 mph5.0 kmh 30.03 in1016.9 mb 0.00 in0.0 mm 0.00 in0.0 mm 0.00 in0.0 mm
03:25 AM 66.9°F19.4°C 55.6°F13.1°C 67% 3.1 mph E5.0 kmh E 4.5 mph7.2 kmh 30.03 in1016.9 mb 0.00 in0.0 mm 0.00 in0.0 mm 0.00 in0.0 mm
03:40 AM 66.4°F19.1°C 56.3°F13.5°C 70% 2.2 mph SE3.5 kmh SE 5.4 mph8.7 kmh 30.03 in1016.9 mb 0.00 in0.0 mm 0.00 in0.0 mm 0.00 in0.0 mm
03:55 AM 65.8°F18.8°C 57.7°F14.3°C 75% 2.2 mph SE3.5 kmh SE 4.5 mph7.2 kmh 30.03 in1016.9 mb 0.00 in0.0 mm 0.00 in0.0 mm 0.00 in0.0 mm
04:10 AM 65.3°F18.5°C 57.6°F14.2°C 76% 0.7 mph SE1.1 kmh SE 3.8 mph6.1 kmh 30.03 in1016.9 mb 0.00 in0.0 mm 0.00 in0.0 mm 0.00 in0.0 mm
04:25 AM 64.9°F18.3°C 57.6°F14.2°C 77% 1.6 mph SE2.6 kmh SE 3.8 mph6.1 kmh 30.02 in1016.6 mb 0.00 in0.0 mm 0.00 in0.0 mm 0.00 in0.0 mm
04:40 AM 64.6°F18.1°C 57.9°F14.4°C 79% 1.6 mph ENE2.6 kmh ENE 3.8 mph6.1 kmh 30.02 in1016.6 mb 0.00 in0.0 mm 0.00 in0.0 mm 0.00 in0.0 mm
04:55 AM 64.6°F18.1°C 58.3°F14.6°C 80% 0.7 mph N1.1 kmh N 3.8 mph6.1 kmh 30.02 in1016.6 mb 0.00 in0.0 mm 0.00 in0.0 mm 0.00 in0.0 mm
05:10 AM 64.4°F18.0°C 58.5°F14.7°C 81% 0.7 mph ENE1.1 kmh ENE 3.1 mph5.0 kmh 30.02 in1016.6 mb 0.00 in0.0 mm 0.00 in0.0 mm 0.00 in0.0 mm
05:25 AM 64.8°F18.2°C 59.8°F15.4°C 84% Calm Calm 3.1 mph5.0 kmh 30.02 in1016.6 mb 0.00 in0.0 mm 0.00 in0.0 mm 0.00 in0.0 mm
05:40 AM 64.9°F18.3°C 60.3°F15.7°C 85% 0.7 mph E1.1 kmh E 2.2 mph3.5 kmh 30.03 in1016.9 mb 0.00 in0.0 mm 0.00 in0.0 mm 0.00 in0.0 mm
05:55 AM 65.1°F18.4°C 60.8°F16.0°C 86% 0.7 mph NE1.1 kmh NE 3.1 mph5.0 kmh 30.03 in1016.9 mb 0.00 in0.0 mm 0.00 in0.0 mm 0.00 in0.0 mm
06:10 AM 64.9°F18.3°C 60.7°F15.9°C 86% Calm Calm 1.6 mph2.6 kmh 30.03 in1016.9 mb 0.00 in0.0 mm 0.00 in0.0 mm 0.00 in0.0 mm
06:25 AM 64.9°F18.3°C 61.0°F16.1°C 87% 0.7 mph E1.1 kmh E 3.8 mph6.1 kmh 30.04 in1017.3 mb 0.00 in0.0 mm 0.00 in0.0 mm 0.00 in0.0 mm
06:40 AM 64.4°F18.0°C 60.5°F15.8°C 87% Calm Calm 0.7 mph1.1 kmh 30.04 in1017.3 mb 0.00 in0.0 mm 0.00 in0.0 mm 0.00 in0.0 mm
06:55 AM 64.6°F18.1°C 61.0°F16.1°C 88% Calm Calm -- 30.06 in1017.9 mb 0.00 in0.0 mm 0.00 in0.0 mm 0.00 in0.0 mm
07:10 AM 67.3°F19.6°C 63.0°F17.2°C 86% Calm Calm -- 30.06 in1017.9 mb 0.00 in0.0 mm 0.00 in0.0 mm 0.00 in0.0 mm
07:25 AM 71.8°F22.1°C 62.7°F17.1°C 73% Calm Calm -- 30.07 in1018.3 mb 0.00 in0.0 mm 0.00 in0.0 mm 0.00 in0.0 mm
07:40 AM 73.4°F23.0°C 61.8°F16.6°C 67% 0.7 mph ESE1.1 kmh ESE 3.1 mph5.0 kmh 30.07 in1018.3 mb 0.00 in0.0 mm 0.00 in0.0 mm 0.00 in0.0 mm
07:55 AM 73.8°F23.2°C 61.3°F16.3°C 65% 0.7 mph ENE1.1 kmh ENE 8.3 mph13.4 kmh 30.07 in1018.3 mb 0.00 in0.0 mm 0.00 in0.0 mm 0.00 in0.0 mm
08:10 AM 73.4°F23.0°C 61.0°F16.1°C 65% 3.8 mph ENE6.1 kmh ENE 6.0 mph9.7 kmh 30.07 in1018.3 mb 0.00 in0.0 mm 0.00 in0.0 mm 0.00 in0.0 mm
08:25 AM 75.0°F23.9°C 62.1°F16.7°C 64% 1.6 mph ESE2.6 kmh ESE 4.5 mph7.2 kmh 30.07 in1018.3 mb 0.00 in0.0 mm 0.00 in0.0 mm 0.00 in0.0 mm
08:40 AM 75.2°F24.0°C 60.9°F16.1°C 61% 1.6 mph NE2.6 kmh NE 5.4 mph8.7 kmh 30.07 in1018.3 mb 0.00 in0.0 mm 0.00 in0.0 mm 0.00 in0.0 mm
08:55 AM 75.9°F24.4°C 61.1°F16.2°C 60% 3.1 mph E5.0 kmh E 6.0 mph9.7 kmh 30.08 in1018.6 mb 0.00 in0.0 mm 0.00 in0.0 mm 0.00 in0.0 mm
09:10 AM 77.0°F25.0°C 60.1°F15.6°C 56% 1.6 mph NE2.6 kmh NE 6.9 mph11.1 kmh 30.08 in1018.6 mb 0.00 in0.0 mm 0.00 in0.0 mm 0.00 in0.0 mm
09:25 AM 77.7°F25.4°C 59.8°F15.4°C 54% 3.8 mph E6.1 kmh E 6.0 mph9.7 kmh 30.08 in1018.6 mb 0.00 in0.0 mm 0.00 in0.0 mm 0.00 in0.0 mm
09:40 AM 77.2°F25.1°C 59.3°F15.2°C 54% 1.6 mph ENE2.6 kmh ENE 6.9 mph11.1 kmh 30.07 in1018.3 mb 0.00 in0.0 mm 0.00 in0.0 mm 0.00 in0.0 mm
09:55 AM 78.1°F25.6°C 58.5°F14.7°C 51% 1.6 mph E2.6 kmh E 10.7 mph17.2 kmh 30.07 in1018.3 mb 0.00 in0.0 mm 0.00 in0.0 mm 0.00 in0.0 mm
10:10 AM 78.8°F26.0°C 50.4°F10.2°C 37% 3.8 mph NE6.1 kmh NE 9.8 mph15.8 kmh 30.08 in1018.6 mb 0.00 in0.0 mm 0.00 in0.0 mm 0.00 in0.0 mm
10:25 AM 78.8°F26.0°C 46.5°F8.1°C 32% 6.0 mph NE9.7 kmh NE 11.4 mph18.3 kmh 30.08 in1018.6 mb 0.00 in0.0 mm 0.00 in0.0 mm 0.00 in0.0 mm
10:40 AM 79.9°F26.6°C 47.4°F8.6°C 32% 3.8 mph NE6.1 kmh NE 9.8 mph15.8 kmh 30.08 in1018.6 mb 0.00 in0.0 mm 0.00 in0.0 mm 0.00 in0.0 mm
10:55 AM 80.2°F26.8°C 47.7°F8.7°C 32% 3.1 mph ENE5.0 kmh ENE 12.1 mph19.5 kmh 30.09 in1019.0 mb 0.00 in0.0 mm 0.00 in0.0 mm 0.00 in0.0 mm
11:10 AM 80.4°F26.9°C 47.1°F8.4°C 31% 3.8 mph NE6.1 kmh NE 11.4 mph18.3 kmh 30.09 in1019.0 mb 0.00 in0.0 mm 0.00 in0.0 mm 0.00 in0.0 mm
11:25 AM 81.0°F27.2°C 47.5°F8.6°C 31% 2.2 mph NE3.5 kmh NE 9.8 mph15.8 kmh 30.09 in1019.0 mb 0.00 in0.0 mm 0.00 in0.0 mm 0.00 in0.0 mm
11:40 AM 81.5°F27.5°C 48.0°F8.9°C 31% 3.8 mph NE6.1 kmh NE 10.7 mph17.2 kmh 30.09 in1019.0 mb 0.00 in0.0 mm 0.00 in0.0 mm 0.00 in0.0 mm
11:55 AM 82.0°F27.8°C 49.3°F9.6°C 32% 3.8 mph NE6.1 kmh NE 11.4 mph18.3 kmh 30.09 in1019.0 mb 0.00 in0.0 mm 0.00 in0.0 mm 0.00 in0.0 mm
12:10 PM 81.1°F27.3°C 46.8°F8.2°C 30% 6.0 mph NE9.7 kmh NE 9.2 mph14.8 kmh 30.09 in1019.0 mb 0.00 in0.0 mm 0.00 in0.0 mm 0.00 in0.0 mm
12:25 PM 81.5°F27.5°C 48.0°F8.9°C 31% 3.8 mph ENE6.1 kmh ENE 9.2 mph14.8 kmh 30.08 in1018.6 mb 0.00 in0.0 mm 0.00 in0.0 mm 0.00 in0.0 mm
12:40 PM 82.4°F28.0°C 47.9°F8.8°C 30% 4.5 mph NE7.2 kmh NE 12.1 mph19.5 kmh 30.08 in1018.6 mb 0.00 in0.0 mm 0.00 in0.0 mm 0.00 in0.0 mm
12:55 PM 82.8°F28.2°C 48.2°F9.0°C 30% 2.2 mph E3.5 kmh E 11.4 mph18.3 kmh 30.08 in1018.6 mb 0.00 in0.0 mm 0.00 in0.0 mm 0.00 in0.0 mm
01:10 PM 82.8°F28.2°C 49.1°F9.5°C 31% 3.1 mph NE5.0 kmh NE 10.7 mph17.2 kmh 30.09 in1019.0 mb 0.00 in0.0 mm 0.00 in0.0 mm 0.00 in0.0 mm
01:25 PM 83.1°F28.4°C 48.5°F9.2°C 30% 2.2 mph E3.5 kmh E 7.6 mph12.2 kmh 30.07 in1018.3 mb 0.00 in0.0 mm 0.00 in0.0 mm 0.00 in0.0 mm
01:40 PM 84.2°F29.0°C 47.6°F8.7°C 28% 3.8 mph N6.1 kmh N 7.6 mph12.2 kmh 30.07 in1018.3 mb 0.00 in0.0 mm 0.00 in0.0 mm 0.00 in0.0 mm
01:55 PM 83.8°F28.8°C 44.3°F6.8°C 25% 3.1 mph ENE5.0 kmh ENE 8.3 mph13.4 kmh 30.07 in1018.3 mb 0.00 in0.0 mm 0.00 in0.0 mm 0.00 in0.0 mm
02:10 PM 84.4°F29.1°C 45.8°F7.7°C 26% 3.1 mph NE5.0 kmh NE 8.3 mph13.4 kmh 30.06 in1017.9 mb 0.00 in0.0 mm 0.00 in0.0 mm 0.00 in0.0 mm
02:25 PM 86.0°F30.0°C 45.1°F7.3°C 24% 1.6 mph NE2.6 kmh NE 6.9 mph11.1 kmh 30.05 in1017.6 mb 0.00 in0.0 mm 0.00 in0.0 mm 0.00 in0.0 mm
02:40 PM 86.5°F30.3°C 44.4°F6.9°C 23% 1.6 mph ENE2.6 kmh ENE 7.6 mph12.2 kmh 30.05 in1017.6 mb 0.00 in0.0 mm 0.00 in0.0 mm 0.00 in0.0 mm
02:55 PM 87.3°F30.7°C 38.6°F3.7°C 18% 1.6 mph NNE2.6 kmh NNE 7.6 mph12.2 kmh 30.04 in1017.3 mb 0.00 in0.0 mm 0.00 in0.0 mm 0.00 in0.0 mm
03:10 PM 86.7°F30.4°C 43.4°F6.3°C 22% 4.5 mph NNE7.2 kmh NNE 9.8 mph15.8 kmh 30.04 in1017.3 mb 0.00 in0.0 mm 0.00 in0.0 mm 0.00 in0.0 mm
03:25 PM 86.2°F30.1°C 44.1°F6.7°C 23% 3.8 mph N6.1 kmh N 9.8 mph15.8 kmh 30.03 in1016.9 mb 0.00 in0.0 mm 0.00 in0.0 mm 0.00 in0.0 mm
03:40 PM 87.4°F30.8°C 45.1°F7.3°C 23% 3.8 mph NE6.1 kmh NE 8.3 mph13.4 kmh 30.03 in1016.9 mb 0.00 in0.0 mm 0.00 in0.0 mm 0.00 in0.0 mm
03:55 PM 88.0°F31.1°C 45.6°F7.6°C 23% 3.8 mph E6.1 kmh E 8.3 mph13.4 kmh 30.02 in1016.6 mb 0.00 in0.0 mm 0.00 in0.0 mm 0.00 in0.0 mm
04:10 PM 88.3°F31.3°C 45.9°F7.7°C 23% 3.1 mph E5.0 kmh E 8.3 mph13.4 kmh 30.01 in1016.3 mb 0.00 in0.0 mm 0.00 in0.0 mm 0.00 in0.0 mm
04:25 PM 88.7°F31.5°C 46.2°F7.9°C 23% 4.5 mph ENE7.2 kmh ENE 9.2 mph14.8 kmh 30.01 in1016.3 mb 0.00 in0.0 mm 0.00 in0.0 mm 0.00 in0.0 mm
04:40 PM 90.0°F32.2°C 46.1°F7.8°C 22% 4.5 mph E7.2 kmh E 9.8 mph15.8 kmh 30.00 in1015.9 mb 0.00 in0.0 mm 0.00 in0.0 mm 0.00 in0.0 mm
04:55 PM 89.6°F32.0°C 45.8°F7.7°C 22% 2.2 mph NE3.5 kmh NE 6.0 mph9.7 kmh 30.00 in1015.9 mb 0.00 in0.0 mm 0.00 in0.0 mm 0.00 in0.0 mm
05:10 PM 90.5°F32.5°C 46.5°F8.1°C 22% 2.2 mph NE3.5 kmh NE 8.3 mph13.4 kmh 30.00 in1015.9 mb 0.00 in0.0 mm 0.00 in0.0 mm 0.00 in0.0 mm
05:25 PM 89.2°F31.8°C 46.6°F8.1°C 23% 1.6 mph NE2.6 kmh NE 6.0 mph9.7 kmh 29.99 in1015.6 mb 0.00 in0.0 mm 0.00 in0.0 mm 0.00 in0.0 mm
05:40 PM 89.1°F31.7°C 47.6°F8.7°C 24% 0.7 mph NNE1.1 kmh NNE 6.9 mph11.1 kmh 29.99 in1015.6 mb 0.00 in0.0 mm 0.00 in0.0 mm 0.00 in0.0 mm
05:55 PM 88.7°F31.5°C 47.3°F8.5°C 24% 2.2 mph NNE3.5 kmh NNE 6.9 mph11.1 kmh 29.99 in1015.6 mb 0.00 in0.0 mm 0.00 in0.0 mm 0.00 in0.0 mm
06:10 PM 89.6°F32.0°C 45.8°F7.7°C 22% 0.7 mph N1.1 kmh N 9.2 mph14.8 kmh 29.98 in1015.2 mb 0.00 in0.0 mm 0.00 in0.0 mm 0.00 in0.0 mm
06:25 PM 91.4°F33.0°C 50.7°F10.4°C 25% 3.1 mph NNE5.0 kmh NNE 4.5 mph7.2 kmh 29.98 in1015.2 mb 0.00 in0.0 mm 0.00 in0.0 mm 0.00 in0.0 mm
06:40 PM 87.6°F30.9°C 47.5°F8.6°C 25% 3.8 mph NNW6.1 kmh NNW 7.6 mph12.2 kmh 29.98 in1015.2 mb 0.00 in0.0 mm 0.00 in0.0 mm 0.00 in0.0 mm
06:55 PM 88.7°F31.5°C 47.3°F8.5°C 24% 0.7 mph N1.1 kmh N 6.9 mph11.1 kmh 29.98 in1015.2 mb 0.00 in0.0 mm 0.00 in0.0 mm 0.00 in0.0 mm
07:10 PM 87.3°F30.7°C 47.2°F8.4°C 25% 1.6 mph NNW2.6 kmh NNW 6.9 mph11.1 kmh 29.98 in1015.2 mb 0.00 in0.0 mm 0.00 in0.0 mm 0.00 in0.0 mm
07:25 PM 86.5°F30.3°C 46.6°F8.1°C 25% 2.2 mph NNW3.5 kmh NNW 6.0 mph9.7 kmh 29.98 in1015.2 mb 0.00 in0.0 mm 0.00 in0.0 mm 0.00 in0.0 mm
07:40 PM 84.9°F29.4°C 47.3°F8.5°C 27% 1.6 mph NNE2.6 kmh NNE 4.5 mph7.2 kmh 29.98 in1015.2 mb 0.00 in0.0 mm 0.00 in0.0 mm 0.00 in0.0 mm
07:55 PM 81.5°F27.5°C 45.3°F7.4°C 28% 1.6 mph N2.6 kmh N 4.5 mph7.2 kmh 29.98 in1015.2 mb 0.00 in0.0 mm 0.00 in0.0 mm 0.00 in0.0 mm
08:10 PM 80.2°F26.8°C 47.7°F8.7°C 32% 0.7 mph N1.1 kmh N 3.1 mph5.0 kmh 29.98 in1015.2 mb 0.00 in0.0 mm 0.00 in0.0 mm 0.00 in0.0 mm
08:25 PM 79.7°F26.5°C 47.3°F8.5°C 32% 1.6 mph N2.6 kmh N 3.1 mph5.0 kmh 29.98 in1015.2 mb 0.00 in0.0 mm 0.00 in0.0 mm 0.00 in0.0 mm
08:40 PM 79.2°F26.2°C 47.6°F8.7°C 33% 0.7 mph N1.1 kmh N 3.1 mph5.0 kmh 29.99 in1015.6 mb 0.00 in0.0 mm 0.00 in0.0 mm 0.00 in0.0 mm
08:55 PM 78.6°F25.9°C 48.7°F9.3°C 35% Calm Calm -- 29.98 in1015.2 mb 0.00 in0.0 mm 0.00 in0.0 mm 0.00 in0.0 mm
09:10 PM 78.3°F25.7°C 49.2°F9.6°C 36% Calm Calm 1.6 mph2.6 kmh 29.99 in1015.6 mb 0.00 in0.0 mm 0.00 in0.0 mm 0.00 in0.0 mm
09:25 PM 78.1°F25.6°C 49.7°F9.8°C 37% 0.7 mph SE1.1 kmh SE 2.2 mph3.5 kmh 29.99 in1015.6 mb 0.00 in0.0 mm 0.00 in0.0 mm 0.00 in0.0 mm
09:40 PM 77.9°F25.5°C 50.3°F10.2°C 38% 0.7 mph ESE1.1 kmh ESE 2.2 mph3.5 kmh 30.00 in1015.9 mb 0.00 in0.0 mm 0.00 in0.0 mm 0.00 in0.0 mm
09:55 PM 77.9°F25.5°C 56.7°F13.7°C 48% 4.5 mph ESE7.2 kmh ESE 6.9 mph11.1 kmh 30.01 in1016.3 mb 0.00 in0.0 mm 0.00 in0.0 mm 0.00 in0.0 mm
10:10 PM 76.8°F24.9°C 60.5°F15.8°C 57% 2.2 mph SE3.5 kmh SE 6.9 mph11.1 kmh 30.02 in1016.6 mb 0.00 in0.0 mm 0.00 in0.0 mm 0.00 in0.0 mm
10:25 PM 76.1°F24.5°C 59.8°F15.4°C 57% 2.2 mph SE3.5 kmh SE 5.4 mph8.7 kmh 30.01 in1016.3 mb 0.00 in0.0 mm 0.00 in0.0 mm 0.00 in0.0 mm
10:40 PM 75.9°F24.4°C 59.1°F15.1°C 56% 4.5 mph SE7.2 kmh SE 6.0 mph9.7 kmh 30.02 in1016.6 mb 0.00 in0.0 mm 0.00 in0.0 mm 0.00 in0.0 mm
10:55 PM 75.6°F24.2°C 58.8°F14.9°C 56% 3.8 mph SSE6.1 kmh SSE 6.9 mph11.1 kmh 30.02 in1016.6 mb 0.00 in0.0 mm 0.00 in0.0 mm 0.00 in0.0 mm
11:10 PM 75.0°F23.9°C 59.8°F15.4°C 59% 2.2 mph SSE3.5 kmh SSE 6.9 mph11.1 kmh 30.02 in1016.6 mb 0.00 in0.0 mm 0.00 in0.0 mm 0.00 in0.0 mm
11:25 PM 74.7°F23.7°C 59.9°F15.5°C 60% 2.2 mph SE3.5 kmh SE 4.5 mph7.2 kmh 30.02 in1016.6 mb 0.00 in0.0 mm 0.00 in0.0 mm 0.00 in0.0 mm
11:40 PM 74.7°F23.7°C 59.9°F15.5°C 60% 2.2 mph SE3.5 kmh SE 6.0 mph9.7 kmh 30.02 in1016.6 mb 0.00 in0.0 mm 0.00 in0.0 mm 0.00 in0.0 mm
11:55 PM 74.5°F23.6°C 60.6°F15.9°C 62% 1.6 mph SE2.6 kmh SE 5.4 mph8.7 kmh 30.02 in1016.6 mb 0.00 in0.0 mm 0.00 in0.0 mm 0.00 in0.0 mm